sensor_id;sensor_type;location;lat;lon;timestamp;P1;durP1;ratioP1;P2;durP2;ratioP2
56541;SDS011;42438;53.174;6.730;2023-08-21T00:01:16;4.72;;;2.40;;
56541;SDS011;42438;53.174;6.730;2023-08-21T00:03:46;5.45;;;2.33;;
56541;SDS011;42438;53.174;6.730;2023-08-21T00:06:17;9.18;;;2.60;;
56541;SDS011;42438;53.174;6.730;2023-08-21T00:08:48;6.35;;;2.65;;
56541;SDS011;42438;53.174;6.730;2023-08-21T00:11:19;6.30;;;2.67;;
56541;SDS011;42438;53.174;6.730;2023-08-21T00:13:49;10.10;;;2.25;;
56541;SDS011;42438;53.174;6.730;2023-08-21T00:16:20;4.97;;;2.33;;
56541;SDS011;42438;53.174;6.730;2023-08-21T00:18:51;6.00;;;2.78;;
56541;SDS011;42438;53.174;6.730;2023-08-21T00:21:21;4.32;;;2.38;;
56541;SDS011;42438;53.174;6.730;2023-08-21T00:23:52;5.28;;;2.35;;
56541;SDS011;42438;53.174;6.730;2023-08-21T00:26:23;6.63;;;2.30;;
56541;SDS011;42438;53.174;6.730;2023-08-21T00:28:54;8.05;;;2.10;;
56541;SDS011;42438;53.174;6.730;2023-08-21T00:31:24;6.80;;;2.58;;
56541;SDS011;42438;53.174;6.730;2023-08-21T00:33:55;6.95;;;2.45;;
56541;SDS011;42438;53.174;6.730;2023-08-21T00:36:25;4.80;;;2.42;;
56541;SDS011;42438;53.174;6.730;2023-08-21T00:38:56;6.78;;;2.28;;
56541;SDS011;42438;53.174;6.730;2023-08-21T00:41:27;4.82;;;2.05;;
56541;SDS011;42438;53.174;6.730;2023-08-21T00:43:57;5.00;;;2.30;;
56541;SDS011;42438;53.174;6.730;2023-08-21T00:46:28;4.50;;;2.28;;
56541;SDS011;42438;53.174;6.730;2023-08-21T00:48:59;5.40;;;2.42;;
56541;SDS011;42438;53.174;6.730;2023-08-21T00:51:29;5.18;;;2.72;;
56541;SDS011;42438;53.174;6.730;2023-08-21T00:54:00;4.85;;;2.58;;
56541;SDS011;42438;53.174;6.730;2023-08-21T00:56:31;6.47;;;2.40;;
56541;SDS011;42438;53.174;6.730;2023-08-21T00:59:02;3.55;;;1.77;;
56541;SDS011;42438;53.174;6.730;2023-08-21T01:01:32;3.58;;;1.98;;
56541;SDS011;42438;53.174;6.730;2023-08-21T01:04:04;5.85;;;1.60;;
56541;SDS011;42438;53.174;6.730;2023-08-21T01:06:35;3.97;;;1.50;;
56541;SDS011;42438;53.174;6.730;2023-08-21T01:09:11;3.58;;;1.80;;
56541;SDS011;42438;53.174;6.730;2023-08-21T01:11:49;3.13;;;2.25;;
56541;SDS011;42438;53.174;6.730;2023-08-21T01:14:39;4.40;;;2.30;;
56541;SDS011;42438;53.174;6.730;2023-08-21T01:17:21;4.47;;;2.63;;
56541;SDS011;42438;53.174;6.730;2023-08-21T01:19:53;4.97;;;2.42;;
56541;SDS011;42438;53.174;6.730;2023-08-21T01:22:27;4.50;;;2.53;;
56541;SDS011;42438;53.174;6.730;2023-08-21T01:25:05;4.15;;;2.30;;
56541;SDS011;42438;53.174;6.730;2023-08-21T01:27:38;4.43;;;2.57;;
56541;SDS011;42438;53.174;6.730;2023-08-21T01:30:11;4.47;;;2.47;;
56541;SDS011;42438;53.174;6.730;2023-08-21T01:32:45;3.40;;;2.28;;
56541;SDS011;42438;53.174;6.730;2023-08-21T01:35:26;3.38;;;2.20;;
56541;SDS011;42438;53.174;6.730;2023-08-21T01:38:00;5.85;;;2.42;;
56541;SDS011;42438;53.174;6.730;2023-08-21T01:40:31;5.70;;;2.85;;
56541;SDS011;42438;53.174;6.730;2023-08-21T01:43:02;3.63;;;2.10;;
56541;SDS011;42438;53.174;6.730;2023-08-21T01:45:32;5.93;;;2.70;;
56541;SDS011;42438;53.174;6.730;2023-08-21T01:48:03;6.57;;;2.65;;
56541;SDS011;42438;53.174;6.730;2023-08-21T01:50:34;6.05;;;2.70;;
56541;SDS011;42438;53.174;6.730;2023-08-21T01:53:05;7.25;;;2.95;;
56541;SDS011;42438;53.174;6.730;2023-08-21T01:55:35;5.90;;;2.80;;
56541;SDS011;42438;53.174;6.730;2023-08-21T01:58:06;7.13;;;2.60;;
56541;SDS011;42438;53.174;6.730;2023-08-21T02:00:37;7.25;;;2.72;;
56541;SDS011;42438;53.174;6.730;2023-08-21T02:03:07;7.63;;;2.55;;
56541;SDS011;42438;53.174;6.730;2023-08-21T02:05:38;6.13;;;2.60;;
56541;SDS011;42438;53.174;6.730;2023-08-21T02:08:13;5.93;;;2.70;;
56541;SDS011;42438;53.174;6.730;2023-08-21T02:10:50;7.40;;;2.65;;
56541;SDS011;42438;53.174;6.730;2023-08-21T02:13:21;5.57;;;2.45;;
56541;SDS011;42438;53.174;6.730;2023-08-21T02:15:52;7.40;;;3.10;;
56541;SDS011;42438;53.174;6.730;2023-08-21T02:18:23;8.15;;;2.67;;
56541;SDS011;42438;53.174;6.730;2023-08-21T02:20:53;4.93;;;2.42;;
56541;SDS011;42438;53.174;6.730;2023-08-21T02:23:24;5.60;;;2.30;;
56541;SDS011;42438;53.174;6.730;2023-08-21T02:25:55;4.88;;;2.10;;
56541;SDS011;42438;53.174;6.730;2023-08-21T02:28:26;3.58;;;1.77;;
56541;SDS011;42438;53.174;6.730;2023-08-21T02:30:56;3.88;;;2.25;;
56541;SDS011;42438;53.174;6.730;2023-08-21T02:33:27;6.93;;;2.50;;
56541;SDS011;42438;53.174;6.730;2023-08-21T02:35:57;5.22;;;2.30;;
56541;SDS011;42438;53.174;6.730;2023-08-21T02:38:28;6.95;;;2.00;;
56541;SDS011;42438;53.174;6.730;2023-08-21T02:40:59;5.00;;;2.45;;
56541;SDS011;42438;53.174;6.730;2023-08-21T02:43:30;4.28;;;2.60;;
56541;SDS011;42438;53.174;6.730;2023-08-21T02:46:00;5.32;;;3.03;;
56541;SDS011;42438;53.174;6.730;2023-08-21T02:48:31;5.55;;;2.75;;
56541;SDS011;42438;53.174;6.730;2023-08-21T02:51:02;7.82;;;3.65;;
56541;SDS011;42438;53.174;6.730;2023-08-21T02:53:33;7.88;;;3.10;;
56541;SDS011;42438;53.174;6.730;2023-08-21T02:56:03;7.78;;;2.90;;
56541;SDS011;42438;53.174;6.730;2023-08-21T02:58:34;9.18;;;3.13;;
56541;SDS011;42438;53.174;6.730;2023-08-21T03:01:04;9.27;;;3.28;;
56541;SDS011;42438;53.174;6.730;2023-08-21T03:03:35;7.38;;;3.03;;
56541;SDS011;42438;53.174;6.730;2023-08-21T03:06:06;6.85;;;3.03;;
56541;SDS011;42438;53.174;6.730;2023-08-21T03:08:37;5.75;;;2.67;;
56541;SDS011;42438;53.174;6.730;2023-08-21T03:11:07;7.63;;;2.97;;
56541;SDS011;42438;53.174;6.730;2023-08-21T03:13:38;5.90;;;3.10;;
56541;SDS011;42438;53.174;6.730;2023-08-21T03:16:09;6.95;;;3.03;;
56541;SDS011;42438;53.174;6.730;2023-08-21T03:18:56;4.63;;;2.28;;
56541;SDS011;42438;53.174;6.730;2023-08-21T03:21:30;4.88;;;2.53;;
56541;SDS011;42438;53.174;6.730;2023-08-21T03:24:01;5.35;;;2.45;;
56541;SDS011;42438;53.174;6.730;2023-08-21T03:26:31;4.53;;;2.10;;
56541;SDS011;42438;53.174;6.730;2023-08-21T03:29:02;5.10;;;2.10;;
56541;SDS011;42438;53.174;6.730;2023-08-21T03:31:33;3.90;;;2.00;;
56541;SDS011;42438;53.174;6.730;2023-08-21T03:34:04;5.55;;;2.38;;
56541;SDS011;42438;53.174;6.730;2023-08-21T03:36:34;4.40;;;2.17;;
56541;SDS011;42438;53.174;6.730;2023-08-21T03:39:07;4.15;;;2.10;;
56541;SDS011;42438;53.174;6.730;2023-08-21T03:41:37;6.10;;;2.33;;
56541;SDS011;42438;53.174;6.730;2023-08-21T03:44:08;4.07;;;2.03;;
56541;SDS011;42438;53.174;6.730;2023-08-21T03:46:39;7.45;;;2.17;;
56541;SDS011;42438;53.174;6.730;2023-08-21T03:49:09;6.88;;;2.20;;
56541;SDS011;42438;53.174;6.730;2023-08-21T03:51:40;4.80;;;2.10;;
56541;SDS011;42438;53.174;6.730;2023-08-21T03:54:11;6.65;;;2.72;;
56541;SDS011;42438;53.174;6.730;2023-08-21T03:56:42;5.32;;;2.40;;
56541;SDS011;42438;53.174;6.730;2023-08-21T03:59:12;4.22;;;2.22;;
56541;SDS011;42438;53.174;6.730;2023-08-21T04:01:43;5.70;;;2.33;;
56541;SDS011;42438;53.174;6.730;2023-08-21T04:04:14;5.60;;;2.10;;
56541;SDS011;42438;53.174;6.730;2023-08-21T04:06:44;6.25;;;2.20;;
56541;SDS011;42438;53.174;6.730;2023-08-21T04:09:15;5.15;;;2.42;;
56541;SDS011;42438;53.174;6.730;2023-08-21T04:11:45;5.13;;;2.60;;
56541;SDS011;42438;53.174;6.730;2023-08-21T04:14:16;7.10;;;2.70;;
56541;SDS011;42438;53.174;6.730;2023-08-21T04:16:47;5.85;;;2.60;;
56541;SDS011;42438;53.174;6.730;2023-08-21T04:19:17;5.00;;;2.20;;
56541;SDS011;42438;53.174;6.730;2023-08-21T04:21:49;4.50;;;2.30;;
56541;SDS011;42438;53.174;6.730;2023-08-21T04:24:20;6.90;;;2.42;;
56541;SDS011;42438;53.174;6.730;2023-08-21T04:26:50;6.25;;;2.35;;
56541;SDS011;42438;53.174;6.730;2023-08-21T04:29:21;6.93;;;2.47;;
56541;SDS011;42438;53.174;6.730;2023-08-21T04:31:52;7.50;;;2.50;;
56541;SDS011;42438;53.174;6.730;2023-08-21T04:34:23;5.47;;;2.20;;
56541;SDS011;42438;53.174;6.730;2023-08-21T04:36:54;4.72;;;2.33;;
56541;SDS011;42438;53.174;6.730;2023-08-21T04:39:24;5.25;;;2.40;;
56541;SDS011;42438;53.174;6.730;2023-08-21T04:41:55;5.30;;;2.53;;
56541;SDS011;42438;53.174;6.730;2023-08-21T04:44:26;5.57;;;2.55;;
56541;SDS011;42438;53.174;6.730;2023-08-21T04:46:57;5.00;;;2.38;;
56541;SDS011;42438;53.174;6.730;2023-08-21T04:49:27;6.30;;;2.63;;
56541;SDS011;42438;53.174;6.730;2023-08-21T04:51:58;5.53;;;2.70;;
56541;SDS011;42438;53.174;6.730;2023-08-21T04:54:28;5.82;;;2.75;;
56541;SDS011;42438;53.174;6.730;2023-08-21T04:56:59;6.70;;;2.58;;
56541;SDS011;42438;53.174;6.730;2023-08-21T04:59:30;7.75;;;3.22;;
56541;SDS011;42438;53.174;6.730;2023-08-21T05:02:00;5.43;;;2.67;;
56541;SDS011;42438;53.174;6.730;2023-08-21T05:04:31;6.97;;;2.80;;
56541;SDS011;42438;53.174;6.730;2023-08-21T05:07:03;6.18;;;2.90;;
56541;SDS011;42438;53.174;6.730;2023-08-21T05:09:35;5.63;;;2.60;;
56541;SDS011;42438;53.174;6.730;2023-08-21T05:12:07;5.57;;;2.58;;
56541;SDS011;42438;53.174;6.730;2023-08-21T05:14:37;6.30;;;3.08;;
56541;SDS011;42438;53.174;6.730;2023-08-21T05:17:08;5.25;;;2.70;;
56541;SDS011;42438;53.174;6.730;2023-08-21T05:19:39;6.50;;;2.85;;
56541;SDS011;42438;53.174;6.730;2023-08-21T05:22:09;5.38;;;2.70;;
56541;SDS011;42438;53.174;6.730;2023-08-21T05:24:40;5.32;;;2.72;;
56541;SDS011;42438;53.174;6.730;2023-08-21T05:27:11;4.70;;;2.80;;
56541;SDS011;42438;53.174;6.730;2023-08-21T05:29:41;6.85;;;2.63;;
56541;SDS011;42438;53.174;6.730;2023-08-21T05:32:12;8.02;;;2.90;;
56541;SDS011;42438;53.174;6.730;2023-08-21T05:34:43;5.05;;;2.80;;
56541;SDS011;42438;53.174;6.730;2023-08-21T05:37:14;5.20;;;2.90;;
56541;SDS011;42438;53.174;6.730;2023-08-21T05:39:45;4.90;;;2.47;;
56541;SDS011;42438;53.174;6.730;2023-08-21T05:42:16;7.20;;;3.20;;
56541;SDS011;42438;53.174;6.730;2023-08-21T05:44:47;4.43;;;2.20;;
56541;SDS011;42438;53.174;6.730;2023-08-21T05:47:17;7.25;;;3.53;;
56541;SDS011;42438;53.174;6.730;2023-08-21T05:49:48;24.23;;;10.43;;
56541;SDS011;42438;53.174;6.730;2023-08-21T05:52:18;52.63;;;20.33;;
56541;SDS011;42438;53.174;6.730;2023-08-21T05:54:49;47.92;;;20.30;;
56541;SDS011;42438;53.174;6.730;2023-08-21T05:57:20;34.70;;;14.30;;
56541;SDS011;42438;53.174;6.730;2023-08-21T05:59:50;19.90;;;9.02;;
56541;SDS011;42438;53.174;6.730;2023-08-21T06:02:21;19.73;;;7.53;;
56541;SDS011;42438;53.174;6.730;2023-08-21T06:04:52;15.35;;;6.65;;
56541;SDS011;42438;53.174;6.730;2023-08-21T06:07:22;14.32;;;6.57;;
56541;SDS011;42438;53.174;6.730;2023-08-21T06:09:53;12.13;;;4.75;;
56541;SDS011;42438;53.174;6.730;2023-08-21T06:12:24;13.90;;;4.47;;
56541;SDS011;42438;53.174;6.730;2023-08-21T06:14:54;8.30;;;3.55;;
56541;SDS011;42438;53.174;6.730;2023-08-21T06:17:26;9.55;;;2.95;;
56541;SDS011;42438;53.174;6.730;2023-08-21T06:19:57;6.90;;;2.80;;
56541;SDS011;42438;53.174;6.730;2023-08-21T06:22:28;8.50;;;2.97;;
56541;SDS011;42438;53.174;6.730;2023-08-21T06:24:59;6.85;;;2.88;;
56541;SDS011;42438;53.174;6.730;2023-08-21T06:27:29;9.38;;;2.70;;
56541;SDS011;42438;53.174;6.730;2023-08-21T06:30:00;9.65;;;3.70;;
56541;SDS011;42438;53.174;6.730;2023-08-21T06:32:31;8.40;;;3.92;;
56541;SDS011;42438;53.174;6.730;2023-08-21T06:35:01;7.95;;;3.28;;
56541;SDS011;42438;53.174;6.730;2023-08-21T06:37:32;8.38;;;3.05;;
56541;SDS011;42438;53.174;6.730;2023-08-21T06:40:03;7.07;;;2.67;;
56541;SDS011;42438;53.174;6.730;2023-08-21T06:42:34;7.07;;;2.55;;
56541;SDS011;42438;53.174;6.730;2023-08-21T06:45:05;7.38;;;2.20;;
56541;SDS011;42438;53.174;6.730;2023-08-21T06:47:36;6.20;;;2.00;;
56541;SDS011;42438;53.174;6.730;2023-08-21T06:50:06;5.05;;;1.95;;
56541;SDS011;42438;53.174;6.730;2023-08-21T06:52:37;4.20;;;2.35;;
56541;SDS011;42438;53.174;6.730;2023-08-21T06:55:08;4.22;;;1.92;;
56541;SDS011;42438;53.174;6.730;2023-08-21T06:57:39;5.32;;;2.20;;
56541;SDS011;42438;53.174;6.730;2023-08-21T07:00:10;5.88;;;2.03;;
56541;SDS011;42438;53.174;6.730;2023-08-21T07:02:41;7.40;;;1.70;;
56541;SDS011;42438;53.174;6.730;2023-08-21T07:05:11;5.05;;;1.60;;
56541;SDS011;42438;53.174;6.730;2023-08-21T07:07:42;6.00;;;1.95;;
56541;SDS011;42438;53.174;6.730;2023-08-21T07:10:13;4.15;;;2.03;;
56541;SDS011;42438;53.174;6.730;2023-08-21T07:12:43;4.00;;;1.80;;
56541;SDS011;42438;53.174;6.730;2023-08-21T07:15:14;8.02;;;1.92;;
56541;SDS011;42438;53.174;6.730;2023-08-21T07:17:45;5.45;;;2.15;;
56541;SDS011;42438;53.174;6.730;2023-08-21T07:20:16;4.70;;;1.80;;
56541;SDS011;42438;53.174;6.730;2023-08-21T07:22:47;4.68;;;1.80;;
56541;SDS011;42438;53.174;6.730;2023-08-21T07:25:17;5.47;;;1.55;;
56541;SDS011;42438;53.174;6.730;2023-08-21T07:27:48;5.40;;;1.60;;
56541;SDS011;42438;53.174;6.730;2023-08-21T07:30:19;5.40;;;1.55;;
56541;SDS011;42438;53.174;6.730;2023-08-21T07:32:49;4.47;;;1.60;;
56541;SDS011;42438;53.174;6.730;2023-08-21T07:35:20;4.47;;;1.40;;
56541;SDS011;42438;53.174;6.730;2023-08-21T07:37:51;5.22;;;1.65;;
56541;SDS011;42438;53.174;6.730;2023-08-21T07:40:22;5.55;;;1.88;;
56541;SDS011;42438;53.174;6.730;2023-08-21T07:42:52;6.05;;;1.70;;
56541;SDS011;42438;53.174;6.730;2023-08-21T07:45:23;3.25;;;1.20;;
56541;SDS011;42438;53.174;6.730;2023-08-21T07:47:54;2.45;;;1.23;;
56541;SDS011;42438;53.174;6.730;2023-08-21T07:50:25;4.03;;;1.40;;
56541;SDS011;42438;53.174;6.730;2023-08-21T07:52:55;5.95;;;1.85;;
56541;SDS011;42438;53.174;6.730;2023-08-21T07:55:26;6.25;;;2.15;;
56541;SDS011;42438;53.174;6.730;2023-08-21T07:57:57;5.85;;;1.45;;
56541;SDS011;42438;53.174;6.730;2023-08-21T08:00:27;5.65;;;1.60;;
56541;SDS011;42438;53.174;6.730;2023-08-21T08:02:58;4.22;;;1.50;;
56541;SDS011;42438;53.174;6.730;2023-08-21T08:05:29;2.45;;;1.40;;
56541;SDS011;42438;53.174;6.730;2023-08-21T08:07:59;4.63;;;1.77;;
56541;SDS011;42438;53.174;6.730;2023-08-21T08:10:30;5.95;;;1.77;;
56541;SDS011;42438;53.174;6.730;2023-08-21T08:13:01;3.08;;;1.45;;
56541;SDS011;42438;53.174;6.730;2023-08-21T08:15:32;3.50;;;1.80;;
56541;SDS011;42438;53.174;6.730;2023-08-21T08:18:04;2.75;;;1.55;;
56541;SDS011;42438;53.174;6.730;2023-08-21T08:20:37;2.97;;;1.50;;
56541;SDS011;42438;53.174;6.730;2023-08-21T08:23:08;5.90;;;1.85;;
56541;SDS011;42438;53.174;6.730;2023-08-21T08:25:38;4.22;;;1.63;;
56541;SDS011;42438;53.174;6.730;2023-08-21T08:28:09;3.78;;;1.50;;
56541;SDS011;42438;53.174;6.730;2023-08-21T08:30:40;5.30;;;1.70;;
56541;SDS011;42438;53.174;6.730;2023-08-21T08:33:10;3.92;;;1.65;;
56541;SDS011;42438;53.174;6.730;2023-08-21T08:35:41;2.72;;;1.50;;
56541;SDS011;42438;53.174;6.730;2023-08-21T08:38:13;6.72;;;2.08;;
56541;SDS011;42438;53.174;6.730;2023-08-21T08:40:45;3.15;;;1.65;;
56541;SDS011;42438;53.174;6.730;2023-08-21T08:43:16;4.53;;;1.70;;
56541;SDS011;42438;53.174;6.730;2023-08-21T08:45:48;4.95;;;1.20;;
56541;SDS011;42438;53.174;6.730;2023-08-21T08:48:20;4.35;;;1.52;;
56541;SDS011;42438;53.174;6.730;2023-08-21T08:50:52;3.97;;;1.60;;
56541;SDS011;42438;53.174;6.730;2023-08-21T08:53:23;3.25;;;1.60;;
56541;SDS011;42438;53.174;6.730;2023-08-21T08:55:55;3.60;;;1.38;;
56541;SDS011;42438;53.174;6.730;2023-08-21T08:58:28;3.97;;;1.30;;
56541;SDS011;42438;53.174;6.730;2023-08-21T09:00:59;2.90;;;1.20;;
56541;SDS011;42438;53.174;6.730;2023-08-21T09:03:30;3.60;;;1.42;;
56541;SDS011;42438;53.174;6.730;2023-08-21T09:06:00;3.95;;;1.90;;
56541;SDS011;42438;53.174;6.730;2023-08-21T09:08:31;4.65;;;1.50;;
56541;SDS011;42438;53.174;6.730;2023-08-21T09:11:02;3.05;;;1.15;;
56541;SDS011;42438;53.174;6.730;2023-08-21T09:13:35;4.40;;;1.65;;
56541;SDS011;42438;53.174;6.730;2023-08-21T09:16:07;3.67;;;1.20;;
56541;SDS011;42438;53.174;6.730;2023-08-21T09:18:38;3.53;;;1.38;;
56541;SDS011;42438;53.174;6.730;2023-08-21T09:21:19;4.25;;;1.60;;
56541;SDS011;42438;53.174;6.730;2023-08-21T09:23:58;4.45;;;1.40;;
56541;SDS011;42438;53.174;6.730;2023-08-21T09:26:30;4.72;;;1.40;;
56541;SDS011;42438;53.174;6.730;2023-08-21T09:29:04;2.55;;;1.23;;
56541;SDS011;42438;53.174;6.730;2023-08-21T09:31:35;4.93;;;1.30;;
56541;SDS011;42438;53.174;6.730;2023-08-21T09:34:06;7.13;;;1.45;;
56541;SDS011;42438;53.174;6.730;2023-08-21T09:36:37;3.33;;;1.20;;
56541;SDS011;42438;53.174;6.730;2023-08-21T09:39:14;8.40;;;1.67;;
56541;SDS011;42438;53.174;6.730;2023-08-21T09:41:56;6.95;;;1.67;;
56541;SDS011;42438;53.174;6.730;2023-08-21T09:44:27;4.18;;;1.55;;
56541;SDS011;42438;53.174;6.730;2023-08-21T09:46:58;3.08;;;1.20;;
56541;SDS011;42438;53.174;6.730;2023-08-21T09:49:28;4.18;;;1.40;;
56541;SDS011;42438;53.174;6.730;2023-08-21T09:51:59;3.15;;;1.30;;
56541;SDS011;42438;53.174;6.730;2023-08-21T09:54:32;4.35;;;1.60;;
56541;SDS011;42438;53.174;6.730;2023-08-21T09:57:03;4.93;;;1.38;;
56541;SDS011;42438;53.174;6.730;2023-08-21T09:59:35;2.90;;;1.02;;
56541;SDS011;42438;53.174;6.730;2023-08-21T10:02:06;5.30;;;1.70;;
56541;SDS011;42438;53.174;6.730;2023-08-21T10:04:39;3.05;;;1.45;;
56541;SDS011;42438;53.174;6.730;2023-08-21T10:07:13;5.65;;;1.30;;
56541;SDS011;42438;53.174;6.730;2023-08-21T10:09:46;5.10;;;1.35;;
56541;SDS011;42438;53.174;6.730;2023-08-21T10:12:17;4.13;;;1.00;;
56541;SDS011;42438;53.174;6.730;2023-08-21T10:14:49;4.55;;;1.38;;
56541;SDS011;42438;53.174;6.730;2023-08-21T10:17:19;4.65;;;1.90;;
56541;SDS011;42438;53.174;6.730;2023-08-21T10:19:51;4.43;;;1.65;;
56541;SDS011;42438;53.174;6.730;2023-08-21T10:22:38;3.92;;;1.33;;
56541;SDS011;42438;53.174;6.730;2023-08-21T10:25:16;2.28;;;1.15;;
56541;SDS011;42438;53.174;6.730;2023-08-21T10:27:52;7.32;;;1.50;;
56541;SDS011;42438;53.174;6.730;2023-08-21T10:30:25;4.40;;;1.35;;
56541;SDS011;42438;53.174;6.730;2023-08-21T10:32:58;4.43;;;1.63;;
56541;SDS011;42438;53.174;6.730;2023-08-21T10:35:30;3.53;;;1.43;;
56541;SDS011;42438;53.174;6.730;2023-08-21T10:40:39;3.88;;;1.30;;
56541;SDS011;42438;53.174;6.730;2023-08-21T10:46:13;2.95;;;1.40;;
56541;SDS011;42438;53.174;6.730;2023-08-21T10:48:45;3.77;;;1.43;;
56541;SDS011;42438;53.174;6.730;2023-08-21T10:51:16;4.30;;;1.52;;
56541;SDS011;42438;53.174;6.730;2023-08-21T10:53:47;5.10;;;1.50;;
56541;SDS011;42438;53.174;6.730;2023-08-21T10:56:18;2.72;;;1.60;;
56541;SDS011;42438;53.174;6.730;2023-08-21T10:58:48;3.90;;;1.67;;
56541;SDS011;42438;53.174;6.730;2023-08-21T11:01:21;3.45;;;1.30;;
56541;SDS011;42438;53.174;6.730;2023-08-21T11:03:52;4.68;;;1.23;;
56541;SDS011;42438;53.174;6.730;2023-08-21T11:06:22;3.80;;;1.20;;
56541;SDS011;42438;53.174;6.730;2023-08-21T11:08:53;3.22;;;1.17;;
56541;SDS011;42438;53.174;6.730;2023-08-21T11:11:23;4.30;;;1.10;;
56541;SDS011;42438;53.174;6.730;2023-08-21T11:13:55;5.00;;;1.17;;
56541;SDS011;42438;53.174;6.730;2023-08-21T11:16:25;3.75;;;1.02;;
56541;SDS011;42438;53.174;6.730;2023-08-21T11:18:56;3.15;;;1.25;;
56541;SDS011;42438;53.174;6.730;2023-08-21T11:21:26;3.22;;;1.25;;
56541;SDS011;42438;53.174;6.730;2023-08-21T11:23:57;3.15;;;1.40;;
56541;SDS011;42438;53.174;6.730;2023-08-21T11:26:28;4.93;;;1.20;;
56541;SDS011;42438;53.174;6.730;2023-08-21T11:28:59;5.22;;;1.35;;
56541;SDS011;42438;53.174;6.730;2023-08-21T11:31:32;3.80;;;1.20;;
56541;SDS011;42438;53.174;6.730;2023-08-21T11:34:03;2.72;;;1.30;;
56541;SDS011;42438;53.174;6.730;2023-08-21T11:36:33;3.30;;;1.30;;
56541;SDS011;42438;53.174;6.730;2023-08-21T11:39:04;3.30;;;1.30;;
56541;SDS011;42438;53.174;6.730;2023-08-21T11:41:54;5.30;;;1.63;;
56541;SDS011;42438;53.174;6.730;2023-08-21T11:44:28;3.92;;;1.38;;
56541;SDS011;42438;53.174;6.730;2023-08-21T11:46:59;4.68;;;1.45;;
56541;SDS011;42438;53.174;6.730;2023-08-21T11:49:35;2.80;;;1.27;;
56541;SDS011;42438;53.174;6.730;2023-08-21T11:52:07;3.35;;;1.20;;
56541;SDS011;42438;53.174;6.730;2023-08-21T11:54:40;2.85;;;1.02;;
56541;SDS011;42438;53.174;6.730;2023-08-21T11:57:12;3.83;;;1.40;;
56541;SDS011;42438;53.174;6.730;2023-08-21T11:59:43;3.58;;;1.60;;
56541;SDS011;42438;53.174;6.730;2023-08-21T12:02:28;3.72;;;1.38;;
56541;SDS011;42438;53.174;6.730;2023-08-21T12:05:05;3.88;;;1.30;;
56541;SDS011;42438;53.174;6.730;2023-08-21T12:07:37;5.25;;;1.20;;
56541;SDS011;42438;53.174;6.730;2023-08-21T12:10:07;3.38;;;1.50;;
56541;SDS011;42438;53.174;6.730;2023-08-21T12:12:38;3.97;;;1.20;;
56541;SDS011;42438;53.174;6.730;2023-08-21T12:15:09;3.85;;;1.45;;
56541;SDS011;42438;53.174;6.730;2023-08-21T12:17:40;2.90;;;1.20;;
56541;SDS011;42438;53.174;6.730;2023-08-21T12:20:11;4.57;;;1.30;;
56541;SDS011;42438;53.174;6.730;2023-08-21T12:22:42;3.15;;;1.52;;
56541;SDS011;42438;53.174;6.730;2023-08-21T12:25:12;3.17;;;1.30;;
56541;SDS011;42438;53.174;6.730;2023-08-21T12:27:43;4.63;;;1.60;;
56541;SDS011;42438;53.174;6.730;2023-08-21T12:30:14;4.30;;;1.48;;
56541;SDS011;42438;53.174;6.730;2023-08-21T12:32:44;3.22;;;1.27;;
56541;SDS011;42438;53.174;6.730;2023-08-21T12:35:16;5.28;;;1.50;;
56541;SDS011;42438;53.174;6.730;2023-08-21T12:37:47;4.00;;;1.60;;
56541;SDS011;42438;53.174;6.730;2023-08-21T12:40:18;5.15;;;1.55;;
56541;SDS011;42438;53.174;6.730;2023-08-21T12:42:48;3.85;;;1.50;;
56541;SDS011;42438;53.174;6.730;2023-08-21T12:45:20;3.53;;;1.30;;
56541;SDS011;42438;53.174;6.730;2023-08-21T12:47:50;5.45;;;1.60;;
56541;SDS011;42438;53.174;6.730;2023-08-21T12:50:21;3.33;;;1.30;;
56541;SDS011;42438;53.174;6.730;2023-08-21T12:52:52;3.83;;;1.60;;
56541;SDS011;42438;53.174;6.730;2023-08-21T12:55:22;3.05;;;1.50;;
56541;SDS011;42438;53.174;6.730;2023-08-21T12:57:53;2.70;;;1.27;;
56541;SDS011;42438;53.174;6.730;2023-08-21T13:00:25;2.63;;;1.33;;
56541;SDS011;42438;53.174;6.730;2023-08-21T13:02:55;3.22;;;1.30;;
56541;SDS011;42438;53.174;6.730;2023-08-21T13:05:26;3.97;;;1.42;;
56541;SDS011;42438;53.174;6.730;2023-08-21T13:07:57;3.42;;;1.30;;
56541;SDS011;42438;53.174;6.730;2023-08-21T13:10:27;4.75;;;1.40;;
56541;SDS011;42438;53.174;6.730;2023-08-21T13:12:58;2.20;;;1.23;;
56541;SDS011;42438;53.174;6.730;2023-08-21T13:15:29;5.90;;;1.50;;
56541;SDS011;42438;53.174;6.730;2023-08-21T13:18:00;3.13;;;1.38;;
56541;SDS011;42438;53.174;6.730;2023-08-21T13:20:30;4.15;;;1.33;;
56541;SDS011;42438;53.174;6.730;2023-08-21T13:23:01;5.18;;;1.85;;
56541;SDS011;42438;53.174;6.730;2023-08-21T13:25:32;4.43;;;1.35;;
56541;SDS011;42438;53.174;6.730;2023-08-21T13:28:03;5.32;;;1.70;;
56541;SDS011;42438;53.174;6.730;2023-08-21T13:30:33;3.55;;;1.55;;
56541;SDS011;42438;53.174;6.730;2023-08-21T13:33:04;6.40;;;2.10;;
56541;SDS011;42438;53.174;6.730;2023-08-21T13:35:35;3.80;;;1.55;;
56541;SDS011;42438;53.174;6.730;2023-08-21T13:38:06;8.63;;;2.22;;
56541;SDS011;42438;53.174;6.730;2023-08-21T13:40:38;3.05;;;1.40;;
56541;SDS011;42438;53.174;6.730;2023-08-21T13:43:10;2.75;;;1.23;;
56541;SDS011;42438;53.174;6.730;2023-08-21T13:45:42;3.88;;;1.55;;
56541;SDS011;42438;53.174;6.730;2023-08-21T13:48:13;3.35;;;1.30;;
56541;SDS011;42438;53.174;6.730;2023-08-21T13:50:43;4.38;;;1.50;;
56541;SDS011;42438;53.174;6.730;2023-08-21T13:53:14;3.17;;;1.40;;
56541;SDS011;42438;53.174;6.730;2023-08-21T13:55:44;4.55;;;1.50;;
56541;SDS011;42438;53.174;6.730;2023-08-21T13:58:15;4.57;;;1.40;;
56541;SDS011;42438;53.174;6.730;2023-08-21T14:00:46;3.67;;;1.20;;
56541;SDS011;42438;53.174;6.730;2023-08-21T14:03:16;5.03;;;1.50;;
56541;SDS011;42438;53.174;6.730;2023-08-21T14:05:47;5.78;;;1.38;;
56541;SDS011;42438;53.174;6.730;2023-08-21T14:08:18;3.63;;;1.33;;
56541;SDS011;42438;53.174;6.730;2023-08-21T14:10:48;3.65;;;1.40;;
56541;SDS011;42438;53.174;6.730;2023-08-21T14:13:19;4.65;;;1.67;;
56541;SDS011;42438;53.174;6.730;2023-08-21T14:15:50;3.45;;;1.30;;
56541;SDS011;42438;53.174;6.730;2023-08-21T14:18:20;5.68;;;1.60;;
56541;SDS011;42438;53.174;6.730;2023-08-21T14:20:51;4.20;;;1.35;;
56541;SDS011;42438;53.174;6.730;2023-08-21T14:23:22;4.68;;;1.50;;
56541;SDS011;42438;53.174;6.730;2023-08-21T14:25:52;3.88;;;1.70;;
56541;SDS011;42438;53.174;6.730;2023-08-21T14:28:23;4.85;;;1.42;;
56541;SDS011;42438;53.174;6.730;2023-08-21T14:30:54;3.22;;;1.20;;
56541;SDS011;42438;53.174;6.730;2023-08-21T14:33:24;5.32;;;1.38;;
56541;SDS011;42438;53.174;6.730;2023-08-21T14:35:55;3.75;;;1.30;;
56541;SDS011;42438;53.174;6.730;2023-08-21T14:38:26;5.10;;;1.45;;
56541;SDS011;42438;53.174;6.730;2023-08-21T14:40:57;2.95;;;1.30;;
56541;SDS011;42438;53.174;6.730;2023-08-21T14:43:28;5.10;;;1.38;;
56541;SDS011;42438;53.174;6.730;2023-08-21T14:46:02;4.63;;;1.60;;
56541;SDS011;42438;53.174;6.730;2023-08-21T14:48:34;3.33;;;1.70;;
56541;SDS011;42438;53.174;6.730;2023-08-21T14:51:05;4.78;;;1.30;;
56541;SDS011;42438;53.174;6.730;2023-08-21T14:53:35;5.18;;;1.48;;
56541;SDS011;42438;53.174;6.730;2023-08-21T14:56:06;3.63;;;1.20;;
56541;SDS011;42438;53.174;6.730;2023-08-21T14:58:37;4.47;;;1.40;;
56541;SDS011;42438;53.174;6.730;2023-08-21T15:01:07;2.88;;;1.27;;
56541;SDS011;42438;53.174;6.730;2023-08-21T15:03:39;4.65;;;1.63;;
56541;SDS011;42438;53.174;6.730;2023-08-21T15:06:11;2.80;;;1.20;;
56541;SDS011;42438;53.174;6.730;2023-08-21T15:08:41;4.13;;;1.40;;
56541;SDS011;42438;53.174;6.730;2023-08-21T15:11:13;3.63;;;1.20;;
56541;SDS011;42438;53.174;6.730;2023-08-21T15:13:43;3.38;;;1.02;;
56541;SDS011;42438;53.174;6.730;2023-08-21T15:16:14;1.83;;;0.80;;
56541;SDS011;42438;53.174;6.730;2023-08-21T15:18:45;3.33;;;1.17;;